createdAt,value
2022-11-01T00:01:57.431Z,53.41
2022-11-01T00:04:24.241Z,53.20
2022-11-01T00:06:51.102Z,53.46
2022-11-01T00:09:17.854Z,53.20
2022-11-01T00:11:44.442Z,53.46
2022-11-01T00:14:18.398Z,53.55
2022-11-01T00:16:45.095Z,53.38
2022-11-01T00:19:11.999Z,53.34
2022-11-01T00:21:38.570Z,53.16
2022-11-01T00:24:05.444Z,53.15
2022-11-01T00:26:32.085Z,53.42
2022-11-01T00:28:58.640Z,53.44
2022-11-01T00:31:25.162Z,53.29
2022-11-01T00:33:51.717Z,53.39
2022-11-01T00:36:18.263Z,53.55
2022-11-01T00:38:44.798Z,53.43
2022-11-01T00:41:11.405Z,53.59
2022-11-01T00:43:37.976Z,53.62
2022-11-01T00:46:04.777Z,53.58
2022-11-01T00:48:31.603Z,53.39
2022-11-01T00:50:58.142Z,53.49
2022-11-01T00:53:24.673Z,53.39
2022-11-01T00:55:51.279Z,53.51
2022-11-01T00:58:17.974Z,53.70
2022-11-01T01:00:44.565Z,53.39
2022-11-01T01:03:11.134Z,53.53
2022-11-01T01:05:37.749Z,53.62
2022-11-01T01:08:04.515Z,53.64
2022-11-01T01:10:31.154Z,53.52
2022-11-01T01:12:57.718Z,53.80
2022-11-01T01:15:24.255Z,53.47
2022-11-01T01:17:50.815Z,53.44
2022-11-01T01:20:17.407Z,53.29
2022-11-01T01:22:44.080Z,53.26
2022-11-01T01:25:10.921Z,53.63
2022-11-01T01:27:37.642Z,53.23
2022-11-01T01:30:06.837Z,53.71
2022-11-01T01:32:34.124Z,53.77
2022-11-01T01:35:00.666Z,53.69
2022-11-01T01:37:27.475Z,53.39
2022-11-01T01:39:54.023Z,53.64
2022-11-01T01:42:27.846Z,53.21
2022-11-01T01:44:57.395Z,53.65
2022-11-01T01:47:32.451Z,53.46
2022-11-01T01:50:15.792Z,53.60
2022-11-01T01:52:47.358Z,53.65
2022-11-01T01:55:16.545Z,53.71
2022-11-01T01:57:43.519Z,53.35
2022-11-01T02:00:10.798Z,53.67
2022-11-01T02:02:38.030Z,53.69
2022-11-01T02:05:11.300Z,53.30
2022-11-01T02:07:37.842Z,53.33
2022-11-01T02:10:04.885Z,53.83
2022-11-01T02:12:35.825Z,53.50
2022-11-01T02:15:04.154Z,53.81
2022-11-01T02:17:51.922Z,53.57
2022-11-01T02:20:24.195Z,53.67
2022-11-01T02:23:12.379Z,53.49
2022-11-01T02:26:01.564Z,53.47
2022-11-01T02:28:46.456Z,53.47
2022-11-01T02:31:31.408Z,53.34
2022-11-01T02:34:10.770Z,53.37
2022-11-01T02:37:23.426Z,53.35
2022-11-01T02:39:52.958Z,53.65
2022-11-01T02:42:23.581Z,53.49
2022-11-01T02:44:54.513Z,53.84
2022-11-01T02:47:21.091Z,53.43
2022-11-01T02:49:50.646Z,53.81
2022-11-01T02:52:23.935Z,53.67
2022-11-01T02:54:54.775Z,53.81
2022-11-01T02:57:37.406Z,53.43
2022-11-01T03:00:28.293Z,53.70
2022-11-01T03:03:12.356Z,53.53
2022-11-01T03:06:00.714Z,53.47
2022-11-01T03:08:48.222Z,53.65
2022-11-01T03:11:17.994Z,53.43
2022-11-01T03:14:01.708Z,53.60
2022-11-01T03:16:29.679Z,53.48
2022-11-01T03:19:20.382Z,53.51
2022-11-01T03:21:51.024Z,53.71
2022-11-01T03:24:26.738Z,53.76
2022-11-01T03:27:04.016Z,53.48
2022-11-01T03:29:31.622Z,53.91
2022-11-01T03:31:58.863Z,53.79
2022-11-01T03:34:26.246Z,53.62
2022-11-01T03:36:56.569Z,53.61
2022-11-01T03:39:29.849Z,53.50
2022-11-01T03:42:02.180Z,53.30
2022-11-01T03:44:33.399Z,53.74
2022-11-01T03:47:00.078Z,53.69
2022-11-01T03:49:26.675Z,53.72
2022-11-01T03:51:53.199Z,53.80
2022-11-01T03:54:19.735Z,53.64
2022-11-01T03:56:46.515Z,53.51
2022-11-01T03:59:13.113Z,53.61
2022-11-01T04:01:39.887Z,53.38
2022-11-01T04:04:06.553Z,53.47
2022-11-01T04:06:33.131Z,53.76
2022-11-01T04:08:59.722Z,53.76
2022-11-01T04:11:26.328Z,53.42
2022-11-01T04:13:52.855Z,53.46
2022-11-01T04:16:37.763Z,53.88
2022-11-01T04:19:22.585Z,53.79
2022-11-01T04:21:49.124Z,53.58
2022-11-01T04:24:21.167Z,53.63
2022-11-01T04:26:48.034Z,53.98
2022-11-01T04:29:14.627Z,53.57
2022-11-01T04:31:41.202Z,54.08
2022-11-01T04:34:07.746Z,53.72
2022-11-01T04:36:34.346Z,53.61
2022-11-01T04:39:00.871Z,53.86
2022-11-01T04:41:28.794Z,53.79
2022-11-01T04:43:57.584Z,53.61
2022-11-01T04:46:24.451Z,53.69
2022-11-01T04:48:51.057Z,53.87
2022-11-01T04:51:17.628Z,53.89
2022-11-01T04:53:44.170Z,53.72
2022-11-01T04:56:12.354Z,53.98
2022-11-01T04:58:43.088Z,53.50
2022-11-01T05:01:13.507Z,53.58
2022-11-01T05:03:40.266Z,53.80
2022-11-01T05:06:06.928Z,53.48
2022-11-01T05:08:33.576Z,53.98
2022-11-01T05:11:00.113Z,53.55
2022-11-01T05:13:26.711Z,53.77
2022-11-01T05:16:13.957Z,53.74
2022-11-01T05:18:42.417Z,53.39
2022-11-01T05:21:09.001Z,53.47
2022-11-01T05:23:35.595Z,53.71
2022-11-01T05:26:02.136Z,53.85
2022-11-01T05:28:28.683Z,53.30
2022-11-01T05:30:55.288Z,53.75
2022-11-01T05:33:21.823Z,53.60
2022-11-01T05:35:48.686Z,53.38
2022-11-01T05:38:15.226Z,53.61
2022-11-01T05:40:41.772Z,53.07
2022-11-01T05:43:08.328Z,53.23
2022-11-01T05:45:34.890Z,53.21
2022-11-01T05:48:02.522Z,53.25
2022-11-01T05:50:29.128Z,53.10
2022-11-01T05:52:55.682Z,53.09
2022-11-01T05:55:22.226Z,53.19
2022-11-01T06:00:20.187Z,52.94
2022-11-01T06:02:46.801Z,52.86
2022-11-01T06:05:13.378Z,52.89
2022-11-01T06:07:39.898Z,52.70
2022-11-01T06:10:06.879Z,52.78
2022-11-01T06:12:33.448Z,53.23
2022-11-01T06:14:59.983Z,52.79
2022-11-01T06:17:26.528Z,53.06
2022-11-01T06:19:53.129Z,52.71
2022-11-01T06:22:19.810Z,52.97
2022-11-01T06:24:46.351Z,52.97
2022-11-01T06:27:12.985Z,52.75
2022-11-01T06:29:39.614Z,52.93
2022-11-01T06:32:06.615Z,53.03
2022-11-01T06:34:33.186Z,52.81
2022-11-01T06:36:59.908Z,53.16
2022-11-01T06:39:26.923Z,52.97
2022-11-01T06:41:53.619Z,52.69
2022-11-01T06:44:20.158Z,52.77
2022-11-01T06:46:46.687Z,52.74
2022-11-01T06:49:16.528Z,52.56
2022-11-01T06:51:45.693Z,53.00
2022-11-01T06:54:12.291Z,53.06
2022-11-01T06:56:38.833Z,53.30
2022-11-01T06:59:05.512Z,53.26
2022-11-01T07:01:32.570Z,53.30
2022-11-01T07:03:59.310Z,53.65
2022-11-01T07:06:28.838Z,53.39
2022-11-01T07:08:55.648Z,53.71
2022-11-01T07:11:26.266Z,53.77
2022-11-01T07:13:55.341Z,54.04
2022-11-01T07:16:21.891Z,53.54
2022-11-01T07:18:48.624Z,54.04
2022-11-01T07:21:15.303Z,53.58
2022-11-01T07:23:41.831Z,54.32
2022-11-01T07:26:08.449Z,54.12
2022-11-01T07:28:35.273Z,53.84
2022-11-01T07:31:01.950Z,54.13
2022-11-01T07:33:28.574Z,53.98
2022-11-01T07:35:55.303Z,54.43
2022-11-01T07:38:21.995Z,54.17
2022-11-01T07:40:49.867Z,53.79
2022-11-01T07:43:17.613Z,54.05
2022-11-01T07:45:44.490Z,54.24
2022-11-01T07:48:12.974Z,54.04
2022-11-01T07:50:40.388Z,54.01
2022-11-01T07:53:11.718Z,54.09
2022-11-01T07:55:38.530Z,53.67
2022-11-01T07:58:06.198Z,53.80
2022-11-01T08:00:33.342Z,53.84
2022-11-01T08:03:05.432Z,54.09
2022-11-01T08:05:32.571Z,53.73
2022-11-01T08:07:59.333Z,53.49
2022-11-01T08:10:26.970Z,53.76
2022-11-01T08:12:53.569Z,53.60
2022-11-01T08:15:20.739Z,53.60
2022-11-01T08:17:47.296Z,53.57
2022-11-01T08:20:13.868Z,53.59
2022-11-01T08:22:40.811Z,53.39
2022-11-01T08:25:07.838Z,53.57
2022-11-01T08:27:35.475Z,53.45
2022-11-01T08:30:02.510Z,53.40
2022-11-01T08:32:29.085Z,53.33
2022-11-01T08:34:55.630Z,53.69
2022-11-01T08:37:22.166Z,53.36
2022-11-01T08:39:48.770Z,53.03
2022-11-01T08:42:15.292Z,53.31
2022-11-01T08:44:41.874Z,52.87
2022-11-01T08:47:09.071Z,52.66
2022-11-01T08:49:35.675Z,52.55
2022-11-01T08:52:02.293Z,53.01
2022-11-01T08:54:28.818Z,52.83
2022-11-01T08:56:55.354Z,52.49
2022-11-01T08:59:21.990Z,52.28
2022-11-01T09:01:50.399Z,52.39
2022-11-01T09:04:17.542Z,51.88
2022-11-01T09:06:44.078Z,52.08
2022-11-01T09:09:10.619Z,52.11
2022-11-01T09:11:37.266Z,52.29
2022-11-01T09:14:04.031Z,52.23
2022-11-01T09:16:30.623Z,51.77
2022-11-01T09:19:01.633Z,51.77
2022-11-01T09:21:31.889Z,51.89
2022-11-01T09:23:59.007Z,52.00
2022-11-01T09:26:27.311Z,51.83
2022-11-01T09:28:58.718Z,52.02
2022-11-01T09:31:25.481Z,52.54
2022-11-01T09:33:57.420Z,52.19
2022-11-01T09:36:28.347Z,51.57
2022-11-01T09:38:55.632Z,52.09
2022-11-01T09:41:31.359Z,52.26
2022-11-01T09:43:59.798Z,52.57
2022-11-01T09:46:31.255Z,52.37
2022-11-01T09:48:59.397Z,52.25
2022-11-01T09:51:26.091Z,51.74
2022-11-01T09:53:55.142Z,51.58
2022-11-01T09:56:39.116Z,51.73
2022-11-01T09:59:14.646Z,51.66
2022-11-01T10:02:10.022Z,51.67
2022-11-01T10:04:51.856Z,51.39
2022-11-01T10:07:55.811Z,50.79
2022-11-01T10:10:36.748Z,50.46
2022-11-01T10:13:37.954Z,50.75
2022-11-01T10:16:16.178Z,50.93
2022-11-01T10:19:16.255Z,51.30
2022-11-01T10:21:54.543Z,51.65
2022-11-01T10:24:28.076Z,51.37
2022-11-01T10:27:01.096Z,50.69
2022-11-01T10:29:37.205Z,50.74
2022-11-01T10:32:05.452Z,50.85
2022-11-01T10:34:36.160Z,50.79
2022-11-01T10:37:23.988Z,50.79
2022-11-01T10:39:58.974Z,50.67
2022-11-01T10:42:30.531Z,50.48
2022-11-01T10:45:06.534Z,50.59
2022-11-01T10:47:33.240Z,50.69
2022-11-01T10:53:00.986Z,50.25
2022-11-01T10:55:45.788Z,50.49
2022-11-01T10:58:12.348Z,50.53
2022-11-01T11:00:40.888Z,50.95
2022-11-01T11:03:30.443Z,50.62
2022-11-01T11:05:59.419Z,50.42
2022-11-01T11:08:26.318Z,51.31
2022-11-01T11:10:53.483Z,51.30
2022-11-01T11:13:22.017Z,50.75
2022-11-01T11:15:53.337Z,50.78
2022-11-01T11:18:27.491Z,49.88
2022-11-01T11:21:00.273Z,49.74
2022-11-01T11:23:29.644Z,49.84
2022-11-01T11:26:22.280Z,50.13
2022-11-01T11:28:52.539Z,49.59
2022-11-01T11:31:25.941Z,49.65
2022-11-01T11:33:53.832Z,49.53
2022-11-01T11:36:32.737Z,49.65
2022-11-01T11:39:00.763Z,49.35
2022-11-01T11:41:39.128Z,49.54
2022-11-01T11:44:31.398Z,49.37
2022-11-01T11:46:57.986Z,49.50
2022-11-01T11:49:27.999Z,49.58
2022-11-01T11:51:54.927Z,49.38
2022-11-01T11:54:31.288Z,49.29
2022-11-01T11:57:24.951Z,49.83
2022-11-01T11:59:54.591Z,49.85
2022-11-01T12:02:34.647Z,50.03
2022-11-01T12:05:03.938Z,50.48
2022-11-01T12:07:57.016Z,50.09
2022-11-01T12:10:34.114Z,50.93
2022-11-01T12:13:02.446Z,50.77
2022-11-01T12:15:41.172Z,50.45
2022-11-01T12:18:16.702Z,50.11
2022-11-01T12:20:44.083Z,49.48
2022-11-01T12:23:27.049Z,49.65
2022-11-01T12:25:54.513Z,49.74
2022-11-01T12:28:27.042Z,49.36
2022-11-01T12:30:58.121Z,49.36
2022-11-01T12:33:26.545Z,49.72
2022-11-01T12:35:54.673Z,50.40
2022-11-01T12:38:32.953Z,49.81
2022-11-01T12:41:05.369Z,50.73
2022-11-01T12:43:55.152Z,50.19
2022-11-01T12:46:31.485Z,50.24
2022-11-01T12:49:03.696Z,50.30
2022-11-01T12:51:35.283Z,49.95
2022-11-01T12:54:19.947Z,50.45
2022-11-01T12:56:46.544Z,50.59
2022-11-01T12:59:15.869Z,50.30
2022-11-01T13:01:53.505Z,50.09
2022-11-01T13:04:31.569Z,50.28
2022-11-01T13:07:23.199Z,50.04
2022-11-01T13:10:20.763Z,49.59
2022-11-01T13:13:10.705Z,49.95
2022-11-01T13:16:03.681Z,49.53
2022-11-01T13:18:52.670Z,49.59
2022-11-01T13:21:31.033Z,49.38
2022-11-01T13:24:02.055Z,49.81
2022-11-01T13:26:50.755Z,49.71
2022-11-01T13:29:36.990Z,49.33
2022-11-01T13:32:23.740Z,49.58
2022-11-01T13:35:09.213Z,49.34
2022-11-01T13:37:38.008Z,49.26
2022-11-01T13:40:12.812Z,49.53
2022-11-01T13:42:52.015Z,49.32
2022-11-01T13:45:51.029Z,49.22
2022-11-01T13:48:40.546Z,49.00
2022-11-01T13:51:12.908Z,48.95
2022-11-01T13:53:45.671Z,49.16
2022-11-01T13:56:20.771Z,49.13
2022-11-01T13:58:47.783Z,48.65
2022-11-01T14:01:36.743Z,48.94
2022-11-01T14:04:38.711Z,48.56
2022-11-01T14:07:11.126Z,48.61
2022-11-01T14:09:47.885Z,48.71
2022-11-01T14:12:43.397Z,48.58
2022-11-01T14:15:16.482Z,48.82
2022-11-01T14:18:03.747Z,48.42
2022-11-01T14:20:33.530Z,48.72
2022-11-01T14:23:42.979Z,48.23
2022-11-01T14:26:18.531Z,48.53
2022-11-01T14:28:46.577Z,48.58
2022-11-01T14:31:15.855Z,48.62
2022-11-01T14:33:43.255Z,48.83
2022-11-01T14:36:12.947Z,48.55
2022-11-01T14:38:50.848Z,48.57
2022-11-01T14:41:18.053Z,48.51
2022-11-01T14:43:47.777Z,48.29
2022-11-01T14:46:17.350Z,48.31
2022-11-01T14:48:51.533Z,48.39
2022-11-01T14:51:31.064Z,48.62
2022-11-01T14:54:04.959Z,48.32
2022-11-01T14:56:38.410Z,48.70
2022-11-01T14:59:21.722Z,48.46
2022-11-01T15:01:50.747Z,48.47
2022-11-01T15:04:22.624Z,48.82
2022-11-01T15:06:49.754Z,48.86
2022-11-01T15:09:30.545Z,48.53
2022-11-01T15:12:06.900Z,48.96
2022-11-01T15:14:42.919Z,48.66
2022-11-01T15:17:22.878Z,48.83
2022-11-01T15:19:52.331Z,48.67
2022-11-01T15:22:21.772Z,49.08
2022-11-01T15:24:51.643Z,48.88
2022-11-01T15:27:20.340Z,49.23
2022-11-01T15:29:47.473Z,48.83
2022-11-01T15:32:30.349Z,48.85
2022-11-01T15:34:59.661Z,49.08
2022-11-01T15:37:29.976Z,49.38
2022-11-01T15:39:56.619Z,49.34
2022-11-01T15:42:27.444Z,49.35
2022-11-01T15:44:53.986Z,49.53
2022-11-01T15:47:24.287Z,49.05
2022-11-01T15:49:55.659Z,49.18
2022-11-01T15:52:25.801Z,49.28
2022-11-01T15:54:55.061Z,49.29
2022-11-01T15:57:47.116Z,49.39
2022-11-01T16:00:18.211Z,49.75
2022-11-01T16:03:10.929Z,49.41
2022-11-01T16:05:56.945Z,49.36
2022-11-01T16:08:29.530Z,49.73
2022-11-01T16:10:56.212Z,49.43
2022-11-01T16:13:22.884Z,49.54
2022-11-01T16:16:07.315Z,49.87
2022-11-01T16:18:36.241Z,49.88
2022-11-01T16:21:27.108Z,50.25
2022-11-01T16:24:09.261Z,50.12
2022-11-01T16:27:06.166Z,50.16
2022-11-01T16:29:48.199Z,49.96
2022-11-01T16:32:30.233Z,50.16
2022-11-01T16:34:57.683Z,50.30
2022-11-01T16:37:26.467Z,49.96
2022-11-01T16:39:54.144Z,50.29
2022-11-01T16:42:21.550Z,50.09
2022-11-01T16:44:54.120Z,50.36
2022-11-01T16:47:20.637Z,50.13
2022-11-01T16:49:49.432Z,50.36
2022-11-01T16:52:16.523Z,50.53
2022-11-01T16:54:43.247Z,50.16
2022-11-01T16:57:20.077Z,50.47
2022-11-01T16:59:46.908Z,50.16
2022-11-01T17:02:23.139Z,50.07
2022-11-01T17:04:56.057Z,50.04
2022-11-01T17:07:22.838Z,50.04
2022-11-01T17:09:49.387Z,50.39
2022-11-01T17:12:15.971Z,50.10
2022-11-01T17:14:43.133Z,50.16
2022-11-01T17:17:15.668Z,50.09
2022-11-01T17:19:45.091Z,50.54
2022-11-01T17:22:16.612Z,50.37
2022-11-01T17:24:43.183Z,50.33
2022-11-01T17:27:09.730Z,50.06
2022-11-01T17:29:36.397Z,50.33
2022-11-01T17:32:04.204Z,50.33
2022-11-01T17:34:30.813Z,50.30
2022-11-01T17:36:57.572Z,50.45
2022-11-01T17:39:27.610Z,50.31
2022-11-01T17:41:54.904Z,49.77
2022-11-01T17:44:21.446Z,50.20
2022-11-01T17:46:47.986Z,50.33
2022-11-01T17:49:15.776Z,49.98
2022-11-01T17:51:42.774Z,50.39
2022-11-01T17:54:09.855Z,50.01
2022-11-01T17:56:36.589Z,50.02
2022-11-01T17:59:03.126Z,50.27
2022-11-01T18:01:30.368Z,50.17
2022-11-01T18:03:57.021Z,50.25
2022-11-01T18:06:23.554Z,50.36
2022-11-01T18:08:51.530Z,50.13
2022-11-01T18:11:35.051Z,50.17
2022-11-01T18:14:15.150Z,50.55
2022-11-01T18:17:01.623Z,50.52
2022-11-01T18:19:34.616Z,50.27
2022-11-01T18:22:16.020Z,50.59
2022-11-01T18:24:52.495Z,50.82
2022-11-01T18:27:39.306Z,52.15
2022-11-01T18:30:17.593Z,52.05
2022-11-01T18:33:19.200Z,51.88
2022-11-01T18:35:56.110Z,51.60
2022-11-01T18:38:41.288Z,51.58
2022-11-01T18:41:13.162Z,51.41
2022-11-01T18:43:40.189Z,51.25
2022-11-01T18:46:25.201Z,51.52
2022-11-01T18:49:00.107Z,51.56
2022-11-01T18:51:31.446Z,51.32
2022-11-01T18:54:10.067Z,51.28
2022-11-01T18:56:40.171Z,51.61
2022-11-01T18:59:13.554Z,51.38
2022-11-01T19:01:40.938Z,51.14
2022-11-01T19:04:16.961Z,51.43
2022-11-01T19:06:43.525Z,52.01
2022-11-01T19:09:18.076Z,52.27
2022-11-01T19:11:44.655Z,51.88
2022-11-01T19:14:13.851Z,51.83
2022-11-01T19:16:40.420Z,51.82
2022-11-01T19:19:14.328Z,51.85
2022-11-01T19:21:40.870Z,51.69
2022-11-01T19:24:23.318Z,51.98
2022-11-01T19:26:50.324Z,51.95
2022-11-01T19:29:18.991Z,51.93
2022-11-01T19:31:47.713Z,52.17
2022-11-01T19:34:20.709Z,51.99
2022-11-01T19:36:48.692Z,52.23
2022-11-01T19:39:30.590Z,52.15
2022-11-01T19:42:01.359Z,52.45
2022-11-01T19:44:28.578Z,52.01
2022-11-01T19:47:19.311Z,52.08
2022-11-01T19:49:45.882Z,51.69
2022-11-01T19:52:23.145Z,51.64
2022-11-01T19:54:50.710Z,51.64
2022-11-01T19:57:26.298Z,51.09
2022-11-01T19:59:53.363Z,51.24
2022-11-01T20:02:22.041Z,51.09
2022-11-01T20:04:56.396Z,51.48
2022-11-01T20:07:26.906Z,51.11
2022-11-01T20:09:58.476Z,51.51
2022-11-01T20:12:25.428Z,51.35
2022-11-01T20:14:52.036Z,51.74
2022-11-01T20:17:18.589Z,51.61
2022-11-01T20:19:45.265Z,51.58
2022-11-01T20:22:11.943Z,51.27
2022-11-01T20:24:38.494Z,51.47
2022-11-01T20:27:05.150Z,51.33
2022-11-01T20:29:31.736Z,51.68
2022-11-01T20:31:58.333Z,51.51
2022-11-01T20:34:27.192Z,51.31
2022-11-01T20:37:27.594Z,51.41
2022-11-01T20:39:40.313Z,51.27
2022-11-01T20:42:08.067Z,51.29
2022-11-01T20:44:34.621Z,51.42
2022-11-01T20:47:01.151Z,51.54
2022-11-01T20:49:29.447Z,51.50
2022-11-01T20:52:03.815Z,51.90
2022-11-01T20:54:40.301Z,51.85
2022-11-01T20:57:12.288Z,51.57
2022-11-01T20:59:42.876Z,51.87
2022-11-01T21:02:10.159Z,51.74
2022-11-01T21:04:38.486Z,51.82
2022-11-01T21:07:12.499Z,52.08
2022-11-01T21:09:45.957Z,51.82
2022-11-01T21:12:34.791Z,51.68
2022-11-01T21:15:02.869Z,52.12
2022-11-01T21:17:29.402Z,51.88
2022-11-01T21:19:55.931Z,52.01
2022-11-01T21:22:22.547Z,51.68
2022-11-01T21:24:49.704Z,51.78
2022-11-01T21:27:27.032Z,51.52
2022-11-01T21:30:01.476Z,51.66
2022-11-01T21:32:30.610Z,51.97
2022-11-01T21:34:58.204Z,51.92
2022-11-01T21:37:27.794Z,52.15
2022-11-01T21:40:04.938Z,51.89
2022-11-01T21:42:35.471Z,51.63
2022-11-01T21:45:30.840Z,52.63
2022-11-01T21:48:22.178Z,52.82
2022-11-01T21:50:48.731Z,52.88
2022-11-01T21:53:15.269Z,53.30
2022-11-01T21:55:41.791Z,53.11
2022-11-01T21:58:08.318Z,53.22
2022-11-01T22:00:34.852Z,52.84
2022-11-01T22:03:01.766Z,52.58
2022-11-01T22:05:28.538Z,52.61
2022-11-01T22:07:55.062Z,52.77
2022-11-01T22:10:21.626Z,52.79
2022-11-01T22:12:48.167Z,52.27
2022-11-01T22:15:14.760Z,52.70
2022-11-01T22:17:41.301Z,52.34
2022-11-01T22:20:08.244Z,52.13
2022-11-01T22:22:34.855Z,52.41
2022-11-01T22:25:01.405Z,52.15
2022-11-01T22:27:28.010Z,52.13
2022-11-01T22:29:54.611Z,52.33
2022-11-01T22:32:21.155Z,51.89
2022-11-01T22:34:47.756Z,52.05
2022-11-01T22:37:14.335Z,52.05
2022-11-01T22:39:41.348Z,52.29
2022-11-01T22:42:12.138Z,52.22
2022-11-01T22:44:39.524Z,51.93
2022-11-01T22:47:06.582Z,51.69
2022-11-01T22:49:35.374Z,51.88
2022-11-01T22:52:11.735Z,51.98
2022-11-01T22:54:47.983Z,51.96
2022-11-01T22:57:19.259Z,52.05
2022-11-01T22:59:59.919Z,51.76
2022-11-01T23:02:37.849Z,51.96
2022-11-01T23:05:07.479Z,51.65
2022-11-01T23:07:33.967Z,51.68
2022-11-01T23:10:05.311Z,51.61
2022-11-01T23:12:52.527Z,51.82
2022-11-01T23:15:29.018Z,51.65
2022-11-01T23:18:17.291Z,51.88
2022-11-01T23:20:45.570Z,51.84
2022-11-01T23:23:18.476Z,51.75
2022-11-01T23:25:45.417Z,51.42
2022-11-01T23:28:13.194Z,51.35
2022-11-01T23:30:43.910Z,51.63
2022-11-01T23:33:17.051Z,51.30
2022-11-01T23:35:52.005Z,51.20
2022-11-01T23:38:21.852Z,51.61
2022-11-01T23:40:49.898Z,51.70
2022-11-01T23:43:37.777Z,51.63
2022-11-01T23:46:05.495Z,51.50
2022-11-01T23:48:32.339Z,51.56
2022-11-01T23:50:59.050Z,51.31
2022-11-01T23:53:52.231Z,51.60
2022-11-01T23:56:20.323Z,51.61
2022-11-01T23:58:54.574Z,51.28
